Time;durP1;ratioP1;P1;durP2;ratioP2;P2;SDS_P1;SDS_P2;PMS_P1;PMS_P2;Temp;Humidity;BMP_temperature;BMP_pressure;BME280_temperature;BME280_humidity;BME280_pressure;Samples;Min_cycle;Max_cycle;Signal;HPM_P1;HPM_P2
2022/12/12 00:00:41;;;;;;;6.50;4.28;;;19.80;55.00;;;;;;5057344;28;20035;-65
2022/12/12 00:03:07;;;;;;;6.63;4.18;;;19.80;55.00;;;;;;5054752;28;20116;-66
2022/12/12 00:05:33;;;;;;;6.13;3.90;;;19.80;55.00;;;;;;5057542;28;20112;-66
2022/12/12 00:07:59;;;;;;;5.72;3.90;;;19.80;55.00;;;;;;5041923;28;20029;-66
2022/12/12 00:10:24;;;;;;;7.13;3.95;;;19.80;55.00;;;;;;5047824;28;20032;-66
2022/12/12 00:12:50;;;;;;;6.45;4.00;;;19.80;55.10;;;;;;5048680;28;20021;-65
2022/12/12 00:15:15;;;;;;;6.10;4.07;;;19.80;55.10;;;;;;5051087;28;20028;-66
2022/12/12 00:17:41;;;;;;;6.13;3.78;;;19.80;55.10;;;;;;5057167;28;20024;-65
2022/12/12 00:20:07;;;;;;;6.50;4.13;;;19.70;55.10;;;;;;5050792;28;20112;-65
2022/12/12 00:22:32;;;;;;;5.80;4.03;;;19.70;55.10;;;;;;5049101;28;20086;-66
2022/12/12 00:24:58;;;;;;;5.80;3.90;;;19.70;55.10;;;;;;5054473;28;20032;-65
2022/12/12 00:27:24;;;;;;;6.40;3.83;;;19.70;55.10;;;;;;5055309;28;20024;-65
2022/12/12 00:29:53;;;;;;;6.25;4.03;;;19.70;55.10;;;;;;5058888;28;20040;-65
2022/12/12 00:32:19;;;;;;;5.88;3.63;;;19.70;55.10;;;;;;5050840;28;20466;-65
2022/12/12 00:34:45;;;;;;;6.03;3.80;;;19.70;55.10;;;;;;5045806;28;20024;-65
2022/12/12 00:37:11;;;;;;;7.15;3.90;;;19.70;55.10;;;;;;5051582;28;20021;-65
2022/12/12 00:39:37;;;;;;;5.75;3.80;;;19.70;55.10;;;;;;5053430;28;20025;-66
2022/12/12 00:42:03;;;;;;;5.40;3.58;;;19.60;55.10;;;;;;5047900;28;20435;-65
2022/12/12 00:44:28;;;;;;;6.53;4.38;;;19.60;55.10;;;;;;5050287;28;20332;-66
2022/12/12 00:46:54;;;;;;;5.53;3.60;;;19.60;55.10;;;;;;5053913;28;20391;-65
2022/12/12 00:49:19;;;;;;;5.30;3.50;;;19.60;55.10;;;;;;5058407;28;20033;-65
2022/12/12 00:51:45;;;;;;;5.57;3.65;;;19.60;55.10;;;;;;5038056;28;20550;-66
2022/12/12 00:54:11;;;;;;;5.55;3.60;;;19.60;55.20;;;;;;5048381;28;20035;-66
2022/12/12 00:56:39;;;;;;;6.10;3.45;;;19.60;55.20;;;;;;5054354;28;20029;-65
2022/12/12 00:59:04;;;;;;;4.95;3.50;;;19.60;55.20;;;;;;5054412;28;20113;-65
2022/12/12 01:01:31;;;;;;;5.70;3.67;;;19.60;55.20;;;;;;5056376;28;20112;-65
2022/12/12 01:03:58;;;;;;;5.40;3.65;;;19.60;55.20;;;;;;5041345;28;20024;-65
2022/12/12 01:06:24;;;;;;;5.20;3.75;;;19.60;55.20;;;;;;5047548;28;20028;-65
2022/12/12 01:08:49;;;;;;;7.18;3.30;;;19.50;55.20;;;;;;5050087;28;20086;-65
2022/12/12 01:11:16;;;;;;;6.13;3.50;;;19.60;55.20;;;;;;5051911;28;20025;-65
2022/12/12 01:13:42;;;;;;;4.55;3.00;;;19.50;55.20;;;;;;5053523;28;20012;-64
2022/12/12 01:16:09;;;;;;;5.25;3.33;;;19.60;55.30;;;;;;5051891;28;20033;-65
2022/12/12 01:18:35;;;;;;;5.75;3.75;;;19.50;55.20;;;;;;5049328;28;20449;-65
2022/12/12 01:21:01;;;;;;;5.88;3.50;;;19.50;55.20;;;;;;5049268;28;20025;-65
2022/12/12 01:23:28;;;;;;;5.88;3.60;;;19.50;55.20;;;;;;5058679;28;20033;-64
2022/12/12 01:26:05;;;;;;;5.65;3.70;;;19.50;55.20;;;;;;5055665;28;20626;-65
2022/12/12 01:28:32;;;;;;;4.93;3.20;;;19.50;55.20;;;;;;5046180;28;20116;-65
2022/12/12 01:30:57;;;;;;;5.07;3.53;;;19.50;55.20;;;;;;5045912;28;20025;-67
2022/12/12 01:33:23;;;;;;;5.32;3.40;;;19.50;55.30;;;;;;5048816;28;20329;-65
2022/12/12 01:35:49;;;;;;;4.70;3.20;;;19.50;55.30;;;;;;5039888;28;20480;-65
2022/12/12 01:38:14;;;;;;;5.22;3.28;;;19.40;55.40;;;;;;5059907;28;20028;-65
2022/12/12 01:40:40;;;;;;;4.88;3.17;;;19.50;55.30;;;;;;5061057;28;20120;-67
2022/12/12 01:43:11;;;;;;;4.88;2.92;;;19.40;55.30;;;;;;5058967;28;20129;-65
2022/12/12 01:45:56;;;;;;;5.63;3.10;;;19.40;55.30;;;;;;5051628;28;20103;-65
2022/12/12 01:48:25;;;;;;;5.30;3.20;;;19.40;55.30;;;;;;5047775;28;20109;-65
2022/12/12 01:50:51;;;;;;;4.63;2.97;;;19.40;55.30;;;;;;5052839;28;20392;-65
2022/12/12 01:53:18;;;;;;;5.32;3.13;;;19.40;55.30;;;;;;5050826;28;20048;-67
2022/12/12 01:55:46;;;;;;;4.72;3.15;;;19.40;55.30;;;;;;5054414;28;20534;-65
2022/12/12 01:58:13;;;;;;;4.72;3.00;;;19.40;55.30;;;;;;5054531;28;20477;-64
2022/12/12 02:00:40;;;;;;;5.00;3.15;;;19.40;55.30;;;;;;5056761;28;20064;-64
2022/12/12 02:03:05;;;;;;;4.72;2.90;;;19.30;55.30;;;;;;5051878;28;20029;-65
2022/12/12 02:05:48;;;;;;;5.10;3.20;;;19.40;55.40;;;;;;5048850;28;20098;-66
2022/12/12 02:08:16;;;;;;;4.22;2.83;;;19.30;55.30;;;;;;5053956;28;20029;-65
2022/12/12 02:10:44;;;;;;;4.15;2.75;;;19.30;55.30;;;;;;5047292;28;20032;-65
2022/12/12 02:13:13;;;;;;;4.25;2.95;;;19.30;55.30;;;;;;5057265;28;20079;-65
2022/12/12 02:15:45;;;;;;;5.85;3.20;;;19.30;55.40;;;;;;5061429;28;20047;-64
2022/12/12 02:18:38;;;;;;;3.97;2.88;;;19.30;55.40;;;;;;5041847;28;20026;-65
2022/12/12 02:21:27;;;;;;;4.32;2.80;;;19.30;55.40;;;;;;5062836;28;20760;-65
2022/12/12 02:24:14;;;;;;;4.00;2.53;;;19.30;55.40;;;;;;5060648;28;20146;-65
2022/12/12 02:27:16;;;;;;;4.63;2.55;;;19.30;55.40;;;;;;5051021;28;20032;-65
2022/12/12 02:30:01;;;;;;;4.45;2.58;;;19.30;56.00;;;;;;5054765;28;20124;-65
2022/12/12 02:32:45;;;;;;;4.53;2.80;;;19.30;55.50;;;;;;5049979;28;20045;-65
2022/12/12 02:35:28;;;;;;;4.35;2.78;;;19.30;55.50;;;;;;5056757;28;20053;-66
2022/12/12 02:37:54;;;;;;;4.97;2.83;;;19.30;55.50;;;;;;5050592;28;20488;-65
2022/12/12 02:40:25;;;;;;;4.07;2.50;;;19.20;55.50;;;;;;5055221;28;20031;-65
2022/12/12 02:43:05;;;;;;;3.80;2.30;;;19.20;55.50;;;;;;5063815;28;20028;-65
2022/12/12 02:46:04;;;;;;;4.03;2.55;;;19.20;55.50;;;;;;5045591;28;20021;-65
2022/12/12 02:48:39;;;;;;;3.45;2.20;;;19.20;55.50;;;;;;5035720;28;20629;-65
2022/12/12 02:51:07;;;;;;;3.70;2.53;;;19.20;55.50;;;;;;5050743;28;20030;-65
2022/12/12 02:53:33;;;;;;;3.72;2.40;;;19.20;55.50;;;;;;5053146;28;20022;-65
2022/12/12 02:56:06;;;;;;;3.60;2.40;;;19.20;55.60;;;;;;5057458;28;20481;-65
2022/12/12 02:58:34;;;;;;;3.60;2.38;;;19.20;55.60;;;;;;5053431;28;20538;-65
2022/12/12 03:01:20;;;;;;;4.10;2.55;;;19.20;55.60;;;;;;5054704;28;20037;-65
2022/12/12 03:10:03;;;;;;;3.33;2.30;;;19.20;55.60;;;;;;5060929;28;20035;-65
2022/12/12 03:12:50;;;;;;;4.35;2.67;;;19.10;55.60;;;;;;5060302;28;20106;-65
2022/12/12 03:15:22;;;;;;;3.88;2.60;;;19.10;55.60;;;;;;5046467;28;20024;-65
2022/12/12 03:17:57;;;;;;;3.85;2.47;;;19.10;55.60;;;;;;5046524;28;20469;-65
2022/12/12 03:20:27;;;;;;;4.53;2.50;;;19.10;55.60;;;;;;5054280;28;20035;-65
2022/12/12 03:23:03;;;;;;;4.18;2.22;;;19.10;55.60;;;;;;5054709;28;20550;-65
2022/12/12 03:25:43;;;;;;;3.65;2.30;;;19.10;55.70;;;;;;5050740;28;20033;-66
2022/12/12 03:28:16;;;;;;;3.45;2.25;;;19.10;55.70;;;;;;5052003;28;20104;-64
2022/12/12 03:30:47;;;;;;;3.90;2.47;;;19.10;55.70;;;;;;5049608;28;20378;-64
2022/12/12 03:33:17;;;;;;;3.72;2.30;;;19.10;55.70;;;;;;5051279;28;20021;-66
2022/12/12 03:35:47;;;;;;;3.70;2.40;;;19.00;55.70;;;;;;5051136;28;20025;-65
2022/12/12 03:38:24;;;;;;;4.00;2.50;;;19.00;55.70;;;;;;5052553;28;20108;-65
2022/12/12 03:40:53;;;;;;;3.42;2.22;;;19.00;55.80;;;;;;5051840;28;20028;-65
2022/12/12 03:43:23;;;;;;;3.80;2.33;;;19.00;55.80;;;;;;5054168;28;20479;-66
2022/12/12 03:46:13;;;;;;;3.53;2.15;;;19.00;55.80;;;;;;5049926;28;20025;-65
2022/12/12 03:48:50;;;;;;;4.03;2.17;;;19.00;55.80;;;;;;5046357;28;20028;-65
2022/12/12 03:51:31;;;;;;;3.72;2.40;;;19.00;55.90;;;;;;5044996;28;20022;-65
2022/12/12 03:54:26;;;;;;;3.47;2.20;;;19.00;55.90;;;;;;5039747;28;20057;-65
2022/12/12 03:57:01;;;;;;;3.30;2.33;;;19.00;56.00;;;;;;5025848;28;20477;-65
2022/12/12 03:59:45;;;;;;;3.45;2.10;;;19.00;56.00;;;;;;5033977;28;20041;-65
2022/12/12 04:02:18;;;;;;;3.70;2.13;;;19.00;56.10;;;;;;5046063;28;20124;-65
2022/12/12 04:05:15;;;;;;;3.63;2.03;;;18.90;56.00;;;;;;5048357;28;20036;-65
2022/12/12 04:07:50;;;;;;;3.10;1.90;;;19.00;56.10;;;;;;5045853;28;20550;-65
2022/12/12 04:13:22;;;;;;;4.07;2.42;;;18.90;56.10;;;;;;5052829;28;20182;-65
2022/12/12 04:15:59;;;;;;;3.83;2.28;;;18.90;56.10;;;;;;5056775;28;20240;-65
2022/12/12 04:18:50;;;;;;;4.07;2.50;;;18.90;56.10;;;;;;5049205;28;20018;-64
2022/12/12 04:24:40;;;;;;;3.45;2.10;;;18.90;56.30;;;;;;5050177;28;20404;-65
2022/12/12 04:27:22;;;;;;;3.22;2.33;;;18.90;56.30;;;;;;5048029;28;20090;-65
2022/12/12 04:30:02;;;;;;;3.30;2.10;;;18.80;56.30;;;;;;5060285;28;20032;-65
2022/12/12 04:32:43;;;;;;;3.55;2.30;;;18.80;56.30;;;;;;5061204;28;20427;-65
2022/12/12 04:35:15;;;;;;;4.03;2.40;;;18.80;56.40;;;;;;5057447;28;20151;-65
2022/12/12 04:37:56;;;;;;;3.70;2.25;;;18.80;56.40;;;;;;5050688;28;20074;-65
2022/12/12 04:40:31;;;;;;;3.17;2.05;;;18.80;56.40;;;;;;5050074;28;20025;-66
2022/12/12 04:43:24;;;;;;;3.97;2.42;;;18.80;56.50;;;;;;5053492;28;20033;-65
2022/12/12 04:45:55;;;;;;;3.40;2.10;;;18.80;56.50;;;;;;5053319;28;20029;-65
2022/12/12 04:48:26;;;;;;;3.10;2.08;;;18.80;56.50;;;;;;5055089;28;20031;-65
2022/12/12 04:50:53;;;;;;;3.20;2.00;;;18.80;56.50;;;;;;5047291;28;20079;-65
2022/12/12 04:53:31;;;;;;;3.20;1.90;;;18.80;56.50;;;;;;5058063;28;20111;-65
2022/12/12 04:55:59;;;;;;;3.92;2.20;;;18.80;56.50;;;;;;5051338;28;20021;-64
2022/12/12 04:58:26;;;;;;;3.35;2.00;;;18.80;56.50;;;;;;5054513;28;20504;-64
2022/12/12 05:01:03;;;;;;;3.10;1.83;;;18.80;56.60;;;;;;5056860;28;20017;-65
2022/12/12 05:03:47;;;;;;;3.53;1.80;;;18.80;56.70;;;;;;5046474;28;20144;-65
2022/12/12 05:06:17;;;;;;;3.60;2.22;;;18.80;56.70;;;;;;5047088;28;20033;-65
2022/12/12 05:08:49;;;;;;;3.60;2.28;;;18.80;56.70;;;;;;5043314;28;20495;-65
2022/12/12 05:11:17;;;;;;;3.70;2.30;;;18.80;56.70;;;;;;5057318;28;20017;-66
2022/12/12 05:13:43;;;;;;;3.90;2.30;;;18.90;56.80;;;;;;5055923;28;20451;-67
2022/12/12 05:16:31;;;;;;;3.63;2.50;;;18.90;56.90;;;;;;5051255;28;20063;-66
2022/12/12 05:18:57;;;;;;;3.80;2.63;;;18.90;56.90;;;;;;5055285;28;20025;-66
2022/12/12 05:21:23;;;;;;;3.80;2.30;;;18.80;56.80;;;;;;5047325;28;20392;-66
2022/12/12 05:23:48;;;;;;;3.65;2.50;;;18.80;56.90;;;;;;5045942;28;20097;-66
2022/12/12 05:26:29;;;;;;;3.63;2.40;;;18.80;56.90;;;;;;5047061;28;20025;-66
2022/12/12 05:28:55;;;;;;;3.97;2.47;;;18.80;57.00;;;;;;5050985;28;20102;-66
2022/12/12 05:31:21;;;;;;;4.03;2.60;;;18.80;56.90;;;;;;5055017;28;20017;-66
2022/12/12 05:33:47;;;;;;;3.40;2.13;;;18.80;57.00;;;;;;5056587;28;20025;-67
2022/12/12 05:36:13;;;;;;;3.15;2.10;;;18.80;57.00;;;;;;5055853;28;20086;-66
2022/12/12 05:38:40;;;;;;;3.75;2.20;;;18.80;57.00;;;;;;5048423;28;20033;-66
2022/12/12 05:41:06;;;;;;;3.60;2.28;;;18.80;57.00;;;;;;5055273;28;20092;-66
2022/12/12 05:43:32;;;;;;;3.55;2.30;;;18.80;57.00;;;;;;5045964;28;20074;-66
2022/12/12 05:45:57;;;;;;;3.17;2.17;;;18.80;57.00;;;;;;5044539;28;20017;-66
2022/12/12 05:48:23;;;;;;;3.40;2.28;;;18.80;57.00;;;;;;5057309;28;20025;-66
2022/12/12 05:50:49;;;;;;;3.28;2.42;;;18.80;57.00;;;;;;5045627;28;20516;-66
2022/12/12 05:53:15;;;;;;;3.15;2.13;;;18.80;57.00;;;;;;5044486;28;20143;-66
2022/12/12 05:55:40;;;;;;;3.38;2.33;;;18.80;57.10;;;;;;5049842;28;20030;-66
2022/12/12 05:58:06;;;;;;;3.40;2.30;;;18.80;57.10;;;;;;5041691;28;20018;-66
2022/12/12 06:00:32;;;;;;;3.88;2.35;;;18.80;57.10;;;;;;5056167;28;20553;-66
2022/12/12 06:02:57;;;;;;;3.58;2.40;;;18.80;57.20;;;;;;5052243;28;20120;-66
2022/12/12 06:05:23;;;;;;;3.78;2.28;;;18.80;57.20;;;;;;5045286;28;20492;-65
2022/12/12 06:07:49;;;;;;;4.10;2.30;;;18.90;57.30;;;;;;5049471;28;20497;-66
2022/12/12 06:10:14;;;;;;;4.20;2.70;;;18.90;57.40;;;;;;5058835;28;20037;-66
2022/12/12 06:12:40;;;;;;;4.50;2.70;;;18.90;57.40;;;;;;5062449;28;20610;-65
2022/12/12 06:15:06;;;;;;;4.60;2.50;;;18.90;57.40;;;;;;5039730;28;20053;-66
2022/12/12 06:17:32;;;;;;;4.88;2.42;;;18.90;57.40;;;;;;5055907;28;20480;-65
2022/12/12 06:19:57;;;;;;;4.75;2.53;;;18.90;57.30;;;;;;5055293;28;20030;-66
2022/12/12 06:22:23;;;;;;;4.47;2.60;;;18.90;57.30;;;;;;5049920;28;20048;-66
2022/12/12 06:24:48;;;;;;;4.65;2.80;;;18.80;57.30;;;;;;5051311;28;20043;-66
2022/12/12 06:27:14;;;;;;;4.57;2.83;;;18.80;57.30;;;;;;5048169;28;20039;-66
2022/12/12 06:29:40;;;;;;;5.20;3.00;;;18.80;57.30;;;;;;5051544;28;20028;-66
2022/12/12 06:32:05;;;;;;;4.68;3.00;;;18.80;57.30;;;;;;5057560;28;20377;-66
2022/12/12 06:34:31;;;;;;;6.30;3.10;;;18.80;57.30;;;;;;5051528;28;20044;-65
2022/12/12 06:36:57;;;;;;;5.45;2.90;;;18.90;57.30;;;;;;5046919;28;20020;-65
2022/12/12 06:39:23;;;;;;;4.25;2.92;;;18.80;57.20;;;;;;5054783;28;20037;-65
2022/12/12 06:41:48;;;;;;;4.43;2.75;;;18.80;57.20;;;;;;5054117;28;20032;-66
2022/12/12 06:44:14;;;;;;;5.43;3.40;;;18.80;57.40;;;;;;5054925;28;20044;-65
2022/12/12 06:46:40;;;;;;;6.20;3.53;;;18.80;57.30;;;;;;5048753;28;20033;-66
2022/12/12 06:49:08;;;;;;;5.60;3.30;;;18.80;57.20;;;;;;5047908;28;20025;-65
2022/12/12 06:51:37;;;;;;;5.07;3.13;;;18.80;57.20;;;;;;5045768;28;20123;-66
2022/12/12 06:54:03;;;;;;;6.35;3.50;;;18.80;57.20;;;;;;5051661;28;20032;-66
2022/12/12 06:56:29;;;;;;;6.75;3.60;;;18.80;57.20;;;;;;5058313;28;20487;-67
2022/12/12 06:58:56;;;;;;;5.70;3.10;;;18.80;57.20;;;;;;5059160;28;20025;-66
2022/12/12 07:01:23;;;;;;;7.13;3.35;;;18.80;57.20;;;;;;5054169;28;20098;-66
2022/12/12 07:03:50;;;;;;;6.20;3.53;;;18.80;57.70;;;;;;5046298;28;20021;-66
2022/12/12 07:06:17;;;;;;;4.75;3.30;;;18.80;57.20;;;;;;5038359;28;20070;-66
2022/12/12 07:08:43;;;;;;;5.47;3.40;;;18.80;57.20;;;;;;5057626;28;20491;-65
2022/12/12 07:11:14;;;;;;;5.85;3.38;;;18.80;57.10;;;;;;5051081;28;20033;-66
2022/12/12 07:13:40;;;;;;;6.10;3.30;;;18.80;57.10;;;;;;5055290;28;20032;-66
2022/12/12 07:16:07;;;;;;;5.18;3.40;;;18.80;57.60;;;;;;5053866;28;20028;-66
2022/12/12 07:18:32;;;;;;;6.88;3.30;;;18.80;57.10;;;;;;5036739;28;20026;-66
2022/12/12 07:20:58;;;;;;;5.25;3.28;;;18.80;57.10;;;;;;5053880;28;20087;-65
2022/12/12 07:23:24;;;;;;;5.28;3.15;;;18.80;57.10;;;;;;5048261;28;20400;-65
2022/12/12 07:25:49;;;;;;;6.32;3.05;;;18.80;57.00;;;;;;5056273;28;20036;-66
2022/12/12 07:28:15;;;;;;;6.10;3.70;;;18.80;57.00;;;;;;5042669;28;20053;-65
2022/12/12 07:30:44;;;;;;;5.78;3.08;;;18.70;56.90;;;;;;5047825;28;20041;-66
2022/12/12 07:33:11;;;;;;;6.13;3.47;;;18.70;56.90;;;;;;5050176;28;20446;-65
2022/12/12 07:35:37;;;;;;;5.07;3.25;;;18.70;57.00;;;;;;5051674;28;20025;-65
2022/12/12 07:38:03;;;;;;;5.55;3.22;;;18.70;56.90;;;;;;5052188;28;20421;-65
2022/12/12 07:40:30;;;;;;;6.05;3.40;;;18.80;57.00;;;;;;5055706;28;20481;-65
2022/12/12 07:42:55;;;;;;;5.60;3.42;;;18.80;56.90;;;;;;5045407;28;20021;-66
2022/12/12 07:45:21;;;;;;;5.00;3.10;;;18.70;56.90;;;;;;5043902;28;20032;-65
2022/12/12 07:47:46;;;;;;;6.53;3.35;;;18.70;56.80;;;;;;5041867;28;20040;-66
2022/12/12 07:50:12;;;;;;;6.43;3.10;;;18.80;56.90;;;;;;5059823;28;20033;-67
2022/12/12 07:52:38;;;;;;;5.75;3.20;;;18.80;56.90;;;;;;5051585;28;20056;-66
2022/12/12 07:55:05;;;;;;;5.70;2.88;;;18.80;56.90;;;;;;5032554;28;20025;-66
2022/12/12 07:57:31;;;;;;;5.55;3.63;;;18.80;56.90;;;;;;5039415;28;20456;-65
2022/12/12 07:59:57;;;;;;;5.10;3.00;;;18.70;56.80;;;;;;5051630;28;20036;-66
2022/12/12 08:02:23;;;;;;;5.80;3.28;;;18.70;56.80;;;;;;5055668;28;20025;-66
2022/12/12 08:04:48;;;;;;;4.55;3.00;;;18.70;56.80;;;;;;5057000;28;20109;-65
2022/12/12 08:07:14;;;;;;;6.18;3.30;;;18.70;56.70;;;;;;5055580;28;20119;-65
2022/12/12 08:09:40;;;;;;;5.00;2.90;;;18.70;56.70;;;;;;5045258;28;20388;-66
2022/12/12 08:12:06;;;;;;;4.75;3.00;;;18.70;56.70;;;;;;5045917;28;20021;-66
2022/12/12 08:14:32;;;;;;;6.30;2.97;;;18.70;56.70;;;;;;5054715;28;20044;-65
2022/12/12 08:16:58;;;;;;;5.30;3.00;;;18.70;56.70;;;;;;5052456;28;20024;-66
2022/12/12 08:19:23;;;;;;;5.25;3.05;;;18.70;56.60;;;;;;5053119;28;20033;-66
2022/12/12 08:21:49;;;;;;;4.07;2.70;;;18.70;56.70;;;;;;5054856;28;20124;-65
2022/12/12 08:24:15;;;;;;;5.32;3.10;;;18.70;56.60;;;;;;5051321;28;20068;-66
2022/12/12 08:26:43;;;;;;;5.55;3.10;;;18.70;56.70;;;;;;5047355;28;20444;-66
2022/12/12 08:29:10;;;;;;;5.32;3.17;;;18.70;56.60;;;;;;5047975;28;20033;-66
2022/12/12 08:31:37;;;;;;;6.32;2.88;;;18.70;56.60;;;;;;5049958;28;20017;-66
2022/12/12 08:34:03;;;;;;;4.65;2.75;;;18.70;56.60;;;;;;5041867;28;20106;-66
2022/12/12 08:36:31;;;;;;;5.13;2.90;;;18.70;56.60;;;;;;5044687;28;20380;-66
2022/12/12 08:39:02;;;;;;;5.53;2.83;;;18.70;56.50;;;;;;5054585;28;20024;-66
2022/12/12 08:41:27;;;;;;;5.53;3.03;;;18.70;56.50;;;;;;5054778;28;20029;-67
2022/12/12 08:43:53;;;;;;;4.90;2.65;;;18.70;56.50;;;;;;5042189;28;20338;-67
2022/12/12 08:46:19;;;;;;;5.45;3.40;;;18.70;56.50;;;;;;5047815;28;20024;-67
2022/12/12 08:48:46;;;;;;;4.80;2.80;;;18.70;56.50;;;;;;5056077;28;20017;-67
2022/12/12 08:51:12;;;;;;;4.18;2.45;;;18.70;56.50;;;;;;5047127;28;20110;-67
2022/12/12 08:53:38;;;;;;;4.88;2.67;;;18.70;56.40;;;;;;5048330;28;20590;-68
2022/12/12 08:56:04;;;;;;;4.50;2.83;;;18.70;56.40;;;;;;5050510;28;20100;-67
2022/12/12 08:58:30;;;;;;;4.63;2.85;;;18.70;56.40;;;;;;5046629;28;20035;-67
2022/12/12 09:00:56;;;;;;;4.45;3.08;;;18.70;56.40;;;;;;5049253;28;20033;-68
2022/12/12 09:03:22;;;;;;;4.18;2.50;;;18.70;56.40;;;;;;5033242;28;20048;-68
2022/12/12 09:05:48;;;;;;;5.32;2.75;;;18.70;56.90;;;;;;5046854;28;20029;-68
2022/12/12 09:08:14;;;;;;;4.65;2.47;;;18.70;56.40;;;;;;5051422;28;20029;-68
2022/12/12 09:10:41;;;;;;;4.55;2.83;;;18.70;56.40;;;;;;5040606;28;20111;-68
2022/12/12 09:13:07;;;;;;;5.53;2.83;;;18.70;56.30;;;;;;5051193;28;20057;-68
2022/12/12 09:15:33;;;;;;;3.95;2.65;;;18.70;56.30;;;;;;5055456;28;20092;-68
2022/12/12 09:17:59;;;;;;;4.00;2.70;;;18.70;56.30;;;;;;5041470;28;20028;-67
2022/12/12 09:20:25;;;;;;;5.30;2.95;;;18.70;56.30;;;;;;5049341;28;20025;-67
2022/12/12 09:22:51;;;;;;;5.47;3.08;;;18.70;56.30;;;;;;5058329;28;20033;-67
2022/12/12 09:25:16;;;;;;;4.90;2.65;;;18.70;56.30;;;;;;5051972;28;20038;-67
2022/12/12 09:27:42;;;;;;;3.88;2.58;;;18.70;56.30;;;;;;5058739;28;20028;-67
2022/12/12 09:30:08;;;;;;;4.47;2.70;;;18.70;56.20;;;;;;5054062;28;20058;-67
2022/12/12 09:32:34;;;;;;;4.70;2.85;;;18.60;56.20;;;;;;5047229;28;20095;-66
2022/12/12 09:34:59;;;;;;;4.57;2.67;;;18.70;56.20;;;;;;5058344;28;20025;-67
2022/12/12 09:37:27;;;;;;;4.85;2.70;;;18.70;56.20;;;;;;5054403;28;20025;-67
2022/12/12 09:39:52;;;;;;;4.32;2.55;;;18.60;56.10;;;;;;5047358;28;20385;-67
2022/12/12 09:42:30;;;;;;;3.58;2.40;;;18.70;56.20;;;;;;5043598;28;20033;-67
2022/12/12 09:45:03;;;;;;;4.72;2.63;;;18.70;56.20;;;;;;5052065;28;20105;-67
2022/12/12 09:47:46;;;;;;;4.18;2.67;;;18.70;56.20;;;;;;5055361;28;20083;-67
2022/12/12 09:50:29;;;;;;;5.38;2.65;;;18.70;56.20;;;;;;5052610;28;20389;-67
2022/12/12 09:52:59;;;;;;;4.20;2.50;;;18.60;56.10;;;;;;5051919;28;20396;-67
2022/12/12 09:55:50;;;;;;;4.47;2.60;;;18.70;56.20;;;;;;5053322;28;20021;-67
2022/12/12 09:58:46;;;;;;;5.05;2.80;;;18.60;56.00;;;;;;5053992;28;20021;-68
2022/12/12 10:01:46;;;;;;;4.97;2.92;;;18.70;56.10;;;;;;5045350;28;20024;-68
2022/12/12 10:04:25;;;;;;;4.80;2.50;;;18.60;56.00;;;;;;5058556;28;20037;-67
2022/12/12 10:07:05;;;;;;;4.93;2.50;;;18.60;56.00;;;;;;5040013;28;20047;-67
2022/12/12 10:09:43;;;;;;;4.30;2.70;;;18.60;56.00;;;;;;5046038;28;20044;-68
2022/12/12 10:12:13;;;;;;;4.68;2.40;;;18.60;56.00;;;;;;5046842;28;20478;-68
2022/12/12 10:14:51;;;;;;;3.80;2.47;;;18.60;56.00;;;;;;5044226;28;20038;-68
2022/12/12 10:17:21;;;;;;;3.90;2.30;;;18.60;56.00;;;;;;5052281;28;20017;-68
2022/12/12 10:19:52;;;;;;;3.60;2.20;;;18.60;56.00;;;;;;5054023;28;20051;-68
2022/12/12 10:22:29;;;;;;;3.75;2.60;;;18.60;56.00;;;;;;5059673;28;20036;-69
2022/12/12 10:25:02;;;;;;;4.13;2.38;;;18.60;56.00;;;;;;5048869;28;20373;-67
2022/12/12 10:27:28;;;;;;;4.65;2.60;;;18.60;56.00;;;;;;5048229;28;20025;-69
2022/12/12 10:30:15;;;;;;;4.30;2.30;;;18.60;56.00;;;;;;5049631;28;20055;-68
2022/12/12 10:33:03;;;;;;;3.55;2.47;;;18.60;55.90;;;;;;5058033;28;20027;-68
2022/12/12 10:35:42;;;;;;;4.13;2.33;;;18.60;55.90;;;;;;5036768;28;20036;-68
2022/12/12 10:38:34;;;;;;;3.15;2.20;;;18.60;55.90;;;;;;5052146;28;20081;-69
2022/12/12 10:41:30;;;;;;;3.50;2.20;;;18.60;55.90;;;;;;5028089;28;20037;-69
2022/12/12 10:44:14;;;;;;;4.18;2.50;;;18.60;55.90;;;;;;5054006;28;20033;-69
2022/12/12 10:46:47;;;;;;;3.85;2.20;;;18.60;55.90;;;;;;5055713;28;20021;-69
2022/12/12 10:49:16;;;;;;;3.28;2.20;;;18.60;55.90;;;;;;5058954;28;20503;-70
2022/12/12 10:51:44;;;;;;;4.70;2.50;;;18.60;55.90;;;;;;5049995;28;20040;-69
2022/12/12 10:54:17;;;;;;;4.00;2.33;;;18.60;55.90;;;;;;5063994;28;20263;-69
2022/12/12 10:57:07;;;;;;;3.95;2.20;;;18.60;55.90;;;;;;5057380;28;20017;-69
2022/12/12 10:59:45;;;;;;;4.15;2.40;;;18.60;55.80;;;;;;5050566;28;20033;-70
2022/12/12 11:02:26;;;;;;;3.92;2.30;;;18.60;55.90;;;;;;5038993;28;20108;-69
2022/12/12 11:05:04;;;;;;;3.75;2.50;;;18.60;55.90;;;;;;5045498;28;20029;-69
2022/12/12 11:07:40;;;;;;;3.70;2.35;;;18.60;55.80;;;;;;5044376;28;20083;-69
2022/12/12 11:10:22;;;;;;;4.38;2.40;;;18.60;55.90;;;;;;5050870;28;20484;-70
2022/12/12 11:13:00;;;;;;;3.58;2.30;;;18.60;55.80;;;;;;5042621;28;20021;-69
2022/12/12 11:15:38;;;;;;;4.28;2.20;;;18.60;55.80;;;;;;5052669;28;20021;-69
2022/12/12 11:18:04;;;;;;;3.55;2.10;;;18.60;55.80;;;;;;5052046;28;20030;-69
2022/12/12 11:20:30;;;;;;;3.95;2.35;;;18.60;55.80;;;;;;5055965;28;20064;-69
2022/12/12 11:22:56;;;;;;;3.83;2.20;;;18.60;55.80;;;;;;5049936;28;20468;-69
2022/12/12 11:25:29;;;;;;;3.72;2.20;;;18.60;55.80;;;;;;5056155;28;20021;-68
2022/12/12 11:27:58;;;;;;;4.03;2.30;;;18.60;55.90;;;;;;5039634;28;20029;-68
2022/12/12 11:30:36;;;;;;;4.07;2.58;;;18.60;55.80;;;;;;5050822;28;20053;-68
2022/12/12 11:33:06;;;;;;;3.35;2.30;;;18.60;55.80;;;;;;5049379;28;20087;-69
2022/12/12 11:35:36;;;;;;;;;;;18.60;55.80;;;;;;5049276;28;20484;-68
2022/12/12 11:38:19;;;;;;;3.80;2.30;;;18.60;55.80;;;;;;5043539;28;20294;-68
2022/12/12 11:40:54;;;;;;;3.25;2.15;;;18.60;55.80;;;;;;5061224;28;20098;-68
2022/12/12 11:43:31;;;;;;;4.07;2.38;;;18.60;55.80;;;;;;5056148;28;20021;-68
2022/12/12 11:46:04;;;;;;;3.60;2.10;;;18.60;55.80;;;;;;5052838;28;20040;-68
2022/12/12 11:48:38;;;;;;;3.80;2.28;;;18.60;55.80;;;;;;5048358;28;20100;-68
2022/12/12 11:51:04;;;;;;;3.50;2.20;;;18.60;55.80;;;;;;5035545;28;20060;-68
2022/12/12 11:53:33;;;;;;;3.58;2.20;;;18.60;55.70;;;;;;5049236;28;20060;-68
2022/12/12 11:56:36;;;;;;;3.83;2.20;;;18.60;55.80;;;;;;5055946;28;20029;-68
2022/12/12 11:59:07;;;;;;;3.45;2.28;;;18.60;55.70;;;;;;5038331;28;20042;-67
2022/12/12 12:01:43;;;;;;;3.13;2.00;;;18.60;55.70;;;;;;5049925;28;20025;-68
2022/12/12 12:04:17;;;;;;;3.58;2.40;;;18.60;55.70;;;;;;5044620;28;20066;-68
2022/12/12 12:06:51;;;;;;;3.38;2.15;;;18.60;55.70;;;;;;5059408;28;20119;-68
2022/12/12 12:09:38;;;;;;;3.50;2.08;;;18.60;55.70;;;;;;5058083;28;20483;-68
2022/12/12 12:12:38;;;;;;;3.80;2.00;;;18.60;55.80;;;;;;5050780;28;20393;-67
2022/12/12 12:15:21;;;;;;;4.32;2.25;;;18.60;55.80;;;;;;5020106;28;20074;-67
2022/12/12 12:18:19;;;;;;;4.28;2.38;;;18.60;55.80;;;;;;5053743;28;20497;-67
2022/12/12 12:20:53;;;;;;;3.10;2.10;;;18.60;55.80;;;;;;5053132;28;20031;-68
2022/12/12 12:23:31;;;;;;;3.90;2.20;;;18.60;55.90;;;;;;5057244;28;20135;-67
2022/12/12 12:26:09;;;;;;;4.38;2.35;;;18.60;55.90;;;;;;5056167;28;20476;-67
2022/12/12 12:29:12;;;;;;;2.92;1.92;;;18.60;55.90;;;;;;5050786;28;20361;-67
2022/12/12 12:32:05;;;;;;;4.15;2.20;;;18.60;55.90;;;;;;5045397;28;20036;-68
2022/12/12 12:35:02;;;;;;;3.28;2.20;;;18.60;56.00;;;;;;5047733;28;20024;-68
2022/12/12 12:37:59;;;;;;;3.30;2.10;;;18.60;56.00;;;;;;5038602;28;20325;-68
2022/12/12 12:40:28;;;;;;;3.35;2.10;;;18.50;55.90;;;;;;5056685;28;20105;-68
2022/12/12 12:43:13;;;;;;;3.30;1.98;;;18.60;56.00;;;;;;5048145;28;20027;-67
2022/12/12 12:45:55;;;;;;;3.75;2.30;;;18.60;56.00;;;;;;5047074;28;20121;-67
2022/12/12 12:48:25;;;;;;;3.45;2.03;;;18.60;56.00;;;;;;5051731;28;20103;-68
2022/12/12 12:50:53;;;;;;;;;;;18.60;56.00;;;;;;5056406;28;20073;-68
2022/12/12 12:53:42;;;;;;;4.47;2.13;;;18.60;56.00;;;;;;5047841;28;19905;-67
2022/12/12 12:56:15;;;;;;;3.80;2.03;;;18.60;56.00;;;;;;5019126;28;20489;-67
2022/12/12 12:58:44;;;;;;;3.30;2.08;;;18.60;56.00;;;;;;5054497;28;20039;-67
2022/12/12 13:01:12;;;;;;;;;;;18.60;56.00;;;;;;5048399;28;20436;-68
2022/12/12 13:03:54;;;;;;;3.50;2.10;;;18.50;56.00;;;;;;5046668;28;19916;-67
2022/12/12 13:06:51;;;;;;;2.97;2.00;;;18.50;56.00;;;;;;5041997;28;20345;-66
2022/12/12 13:09:22;;;;;;;3.55;2.22;;;18.60;56.00;;;;;;5020137;28;20489;-67
2022/12/12 13:11:52;;;;;;;3.20;2.08;;;18.60;56.00;;;;;;5053529;28;20025;-67
2022/12/12 13:14:28;;;;;;;3.58;1.83;;;18.60;56.00;;;;;;5047327;28;20104;-67
2022/12/12 13:16:54;;;;;;;3.72;2.10;;;18.50;56.00;;;;;;5037282;28;20029;-67
2022/12/12 13:19:41;;;;;;;4.03;2.20;;;18.60;56.10;;;;;;5051757;28;20476;-68
2022/12/12 13:22:15;;;;;;;3.13;1.98;;;18.50;56.00;;;;;;5045618;28;20032;-68
2022/12/12 13:25:12;;;;;;;2.50;1.90;;;18.50;56.10;;;;;;5057780;28;20406;-68